• Join FlightAware (Why Join?)
  • Login
  • US Flag 
10:11PM EST


 

Airport Tracker/Info


-or-


 

Live Flight TrackerFlight Track Log ✈ N411WC ✈ 26-Jul-2013 ✈ KBOI - KUAO

Flight Track Log - Related Links

Times and Time Zones

All times are in EDT time to prevent confusion due to time zone crossing. See the N411WC flight status page for this flight to view local times or setup timezone preferences in your user account.

Time Position Orientation Groundspeed Altitude Reporting Facility
EDT Latitude Longitude Course Direction KTS MPH feet Rate Location/Type
05:08PM 43.6100 -116.3658 295° West 189 217 7,000  Level Salt Lake Center
05:09PM 43.6350 -116.4397 295° West 202 232 8,900 1,740 Climbing Salt Lake Center
05:10PM 43.6575 -116.5078 295° West 207 238 10,600 1,800 Climbing Salt Lake Center
05:11PM 43.6847 -116.5906 294° West 211 243 12,700 1,800 Climbing Salt Lake Center
05:13PM 43.7222 -116.7663 292° West  Level Estimated
05:13PM 43.7089 -116.6617 295° West 211 243 14,400  Level Salt Lake Center
05:14PM 43.7356 -116.7447 294° West 208 239 16,400 1,680 Climbing Salt Lake Center
05:15PM 43.7578 -116.8156 293° West 207 238 18,000 1,620 Climbing Salt Lake Center
05:16PM 43.7792 -116.8825 294° West 199 229 19,800 1,800 Climbing Salt Lake Center
05:17PM 43.8047 -116.9592 295° West 196 226 21,800 1,740 Climbing Salt Lake Center
05:18PM 43.8239 -117.0200 294° West 181 208 23,500 1,500 Climbing Salt Lake Center
05:19PM 43.8456 -117.0892 293° West 178 205 25,000 1,200 Climbing Salt Lake Center
05:20PM 43.8653 -117.1528 293° West 186 214 26,000 480 Climbing Salt Lake Center
05:21PM 43.8944 -117.2406 295° West 229 264 26,000  Level Salt Lake Center
05:22PM 43.9222 -117.3250 295° West 250 288 26,000  Level Salt Lake Center
05:23PM 43.9542 -117.4297 293° West 264 304 26,000  Level Salt Lake Center
05:24PM 43.9833 -117.5192 294° West 266 306 26,000  Level Salt Lake Center
05:25PM 44.0175 -117.6239 294° West 267 307 26,000  Level Salt Lake Center
05:26PM 44.0458 -117.7169 293° West 271 312 26,000  Level Salt Lake Center
05:27PM 44.0739 -117.8083 293° West 268 308 26,000  Level Salt Lake Center
05:28PM 44.1089 -117.9167 294° West 276 318 26,000  Level Salt Lake Center
05:29PM 44.1361 -118.0072 293° West 268 308 26,000  Level Salt Lake Center
05:30PM 44.1692 -118.1128 294° West 266 306 26,000  Level Salt Lake Center
05:31PM 44.1969 -118.2036 293° West 265 305 26,000  Level Salt Lake Center
05:32PM 44.2253 -118.2947 293° West 267 307 26,000  Level Seattle Center
05:33PM 44.2561 -118.3931 294° West 272 313 26,000  Level Seattle Center
05:34PM 44.2856 -118.4894 293° West 275 316 26,000  Level Seattle Center
05:35PM 44.3167 -118.5892 294° West 280 322 26,000  Level Seattle Center
05:36PM 44.3539 -118.7092 293° West 281 323 26,000  Level Seattle Center
05:37PM 44.3819 -118.8097 291° West 279 321 26,000  Level Seattle Center
05:38PM 44.4117 -118.9078 293° West 277 319 26,000  Level Seattle Center
05:39PM 44.4356 -119.0078 289° West 274 315 26,000  Level Seattle Center
05:40PM 44.4506 -119.1103 282° West 269 310 26,000  Level Seattle Center
05:41PM 44.4669 -119.2128 283° West 271 312 26,000  Level Seattle Center
05:42PM 44.4847 -119.3150 284° West 272 313 26,000  Level Seattle Center
05:43PM 44.5000 -119.4181 282° West 270 311 26,000  Level Seattle Center
05:44PM 44.5161 -119.5211 282° West 271 312 26,000  Level Seattle Center
05:45PM 44.5325 -119.6247 283° West 272 313 26,000  Level Seattle Center
05:46PM 44.5481 -119.7289 282° West 273 314 26,000  Level Seattle Center
05:47PM 44.5653 -119.8328 283° West 273 314 26,000  Level Seattle Center
05:48PM 44.5831 -119.9550 282° West 268 308 26,000  Level Seattle Center
05:49PM 44.5983 -120.0592 282° West 270 311 26,000  Level Seattle Center
05:50PM 44.6144 -120.1622 282° West 270 311 26,000  Level Seattle Center
05:51PM 44.6300 -120.2636 282° West 266 306 26,000  Level Seattle Center
05:53PM 44.6453 -120.3647 282° West 264 304 26,000  Level Seattle Center
05:54PM 44.6606 -120.4700 282° West 271 312 26,000  Level Seattle Center
05:55PM 44.6764 -120.5750 282° West 273 314 26,000  Level Seattle Center
05:56PM 44.6922 -120.6783 282° West 272 313 26,000  Level Seattle Center
05:57PM 44.7069 -120.7817 281° West 270 311 26,000  Level Seattle Center
05:58PM 44.7217 -120.8850 281° West 270 311 26,000  Level Seattle Center
05:59PM 44.7375 -120.9892 282° West 272 313 26,000  Level Seattle Center
06:00PM 44.7517 -121.0922 281° West 269 310 26,000 -480 Level Seattle Center
06:01PM 44.7706 -121.2211 282° West 281 323 25,100 -960 Descending Seattle Center
06:02PM 44.7867 -121.3358 281° West 298 343 24,100 -1,320 Descending Seattle Center
06:03PM 44.8025 -121.4542 281° West 308 354 22,500 -1,620 Descending Seattle Center
06:04PM 44.8194 -121.5769 281° West 319 367 20,800 -1,680 Descending Seattle Center
06:05PM 44.8361 -121.6981 281° West 317 365 19,100 -1,740 Descending Seattle Center
06:05PM 44.8475 -121.7586 285° West 307 353 18,200 -1,380 Descending Seattle Center
06:06PM 44.8514 -121.8181 275° West 312 359 17,700 -1,500 Descending Seattle Center
06:07PM 44.8694 -121.9342 282° West 313 360 16,000 -1,800 Descending Seattle Center
06:08PM 44.8836 -122.0428 280° West 306 352 14,500 -1,740 Descending Seattle Center
06:09PM 44.8969 -122.1594 279° West 305 351 12,900 -1,980 Descending Seattle Center
06:10PM 44.9511 -122.2836 302° West 300 345 10,100 -2,160 Descending Seattle Center
06:11PM 44.9925 -122.3586 308° West 292 336 8,300 -2,100 Descending Seattle Center
06:12PM 45.0350 -122.4392 307° West 279 321 6,300 -1,260 Descending Seattle Center
06:13PM 45.0872 -122.5422 306° West 263 303 5,600 -1,140 Descending Seattle Center
06:14PM 45.1253 -122.6167 306° West 244 281 3,800 -1,740 Descending Seattle Center
06:15PM 45.1586 -122.6772 308° West 212 244 2,100 -1,200 Descending Seattle Center
06:16PM 45.1839 -122.7294 304° West 174 200 1,400 -660 Descending Seattle Center
06:17PM 45.2094 -122.7758 308° West 159 183 800 -600 Descending Seattle Center
06:18PM 45.2397 -122.7719 North 123 142 200 -360 Descending Seattle Center
06:19PM 45.2542 -122.7689 North 96 110 100 -120 Descending Seattle Center